Time;durP1;ratioP1;P1;durP2;ratioP2;P2;SDS_P1;SDS_P2;PMS_P1;PMS_P2;Temp;Humidity;BMP_temperature;BMP_pressure;BME280_temperature;BME280_humidity;BME280_pressure;Samples;Min_cycle;Max_cycle;Signal;HPM_P1;HPM_P2
2021/03/30 00:01:24;;;;;;;22.65;12.18;;;282.50;1510.40;;;;;;5013090;28;20494;-74
2021/03/30 00:03:50;;;;;;;25.48;13.35;;;282.40;1536.00;;;;;;5013134;28;20034;-74
2021/03/30 00:06:16;;;;;;;26.23;13.20;;;282.40;1536.00;;;;;;5013082;28;20021;-74
2021/03/30 00:08:41;;;;;;;23.48;14.05;;;282.30;1536.00;;;;;;5013832;28;20392;-74
2021/03/30 00:11:07;;;;;;;29.52;15.27;;;282.30;1536.00;;;;;;5013061;28;20022;-74
2021/03/30 00:13:34;;;;;;;31.48;15.77;;;282.20;1536.00;;;;;;5012663;28;20042;-75
2021/03/30 00:16:00;;;;;;;30.38;16.48;;;282.20;1536.00;;;;;;5013758;28;20029;-74
2021/03/30 00:18:26;;;;;;;31.30;17.70;;;282.20;1536.00;;;;;;5012193;28;20021;-74
2021/03/30 00:20:52;;;;;;;32.72;17.20;;;282.20;1561.60;;;;;;5013960;28;20026;-74
2021/03/30 00:23:18;;;;;;;33.33;16.17;;;282.20;1561.60;;;;;;5012796;28;20032;-74
2021/03/30 00:25:43;;;;;;;27.63;16.30;;;282.10;1561.60;;;;;;5014041;28;20026;-74
2021/03/30 00:28:09;;;;;;;38.83;18.30;;;282.10;1561.60;;;;;;5012711;28;20030;-75
2021/03/30 00:30:35;;;;;;;34.10;18.33;;;282.10;1561.60;;;;;;5013765;28;20014;-74
2021/03/30 00:33:01;;;;;;;35.22;19.27;;;282.00;1561.60;;;;;;5012179;28;20033;-74
2021/03/30 00:35:26;;;;;;;29.45;16.95;;;282.00;1561.60;;;;;;5013638;28;20018;-74
2021/03/30 00:37:52;;;;;;;31.73;18.63;;;282.00;1561.60;;;;;;5012565;28;20382;-74
2021/03/30 00:40:18;;;;;;;34.20;17.83;;;282.00;1561.60;;;;;;5012247;28;20363;-74
2021/03/30 00:42:44;;;;;;;31.08;17.13;;;282.00;1561.60;;;;;;5012490;28;20101;-74
2021/03/30 00:45:11;;;;;;;35.85;17.83;;;282.00;1561.60;;;;;;5013022;28;20473;-74
2021/03/30 00:47:42;;;;;;;35.90;17.92;;;281.90;1587.20;;;;;;5012943;28;20108;-74
2021/03/30 00:50:11;;;;;;;34.60;17.30;;;281.90;1587.20;;;;;;5011427;28;20030;-74
2021/03/30 00:52:38;;;;;;;29.42;16.50;;;281.90;1587.20;;;;;;5013189;28;20451;-74
2021/03/30 00:55:05;;;;;;;27.23;14.93;;;281.90;1561.60;;;;;;5012241;28;20112;-74
2021/03/30 00:57:31;;;;;;;31.70;16.70;;;281.90;1587.20;;;;;;5012371;28;20022;-74
2021/03/30 00:59:57;;;;;;;27.23;16.98;;;281.90;1587.20;;;;;;5013531;28;20018;-74
2021/03/30 01:02:23;;;;;;;30.20;15.40;;;281.90;1587.20;;;;;;5013513;28;20030;-74
2021/03/30 01:04:49;;;;;;;26.65;15.50;;;281.90;1561.60;;;;;;5012295;28;20381;-74
2021/03/30 01:07:14;;;;;;;27.02;14.98;;;281.90;1587.20;;;;;;5013508;28;20101;-74
2021/03/30 01:10:02;;;;;;;25.60;13.70;;;281.80;1587.20;;;;;;5012082;28;20426;-74
2021/03/30 01:12:44;;;;;;;30.73;16.10;;;281.80;1587.20;;;;;;5013199;28;20026;-74
2021/03/30 01:15:28;;;;;;;32.20;15.98;;;281.70;1612.80;;;;;;5013506;28;20046;-74
2021/03/30 01:18:42;;;;;;;35.47;14.07;;;281.70;1612.80;;;;;;5012179;28;20049;-74
2021/03/30 01:21:29;;;;;;;27.77;14.82;;;281.70;1612.80;;;;;;4996041;28;20069;-74
2021/03/30 01:23:55;;;;;;;25.85;14.55;;;281.70;1612.80;;;;;;5017314;28;20037;-74
2021/03/30 01:26:38;;;;;;;23.15;13.75;;;281.70;1612.80;;;;;;5016045;28;20030;-74
2021/03/30 01:29:11;;;;;;;30.85;13.30;;;281.70;1638.40;;;;;;5017363;28;20022;-75
2021/03/30 01:31:39;;;;;;;21.58;13.38;;;281.70;1612.80;;;;;;5015947;28;20109;-75
2021/03/30 01:34:07;;;;;;;21.67;14.07;;;281.70;1638.40;;;;;;5017508;28;20022;-74
2021/03/30 01:36:36;;;;;;;28.40;14.77;;;281.70;1638.40;;;;;;5017112;28;20029;-74
2021/03/30 01:39:03;;;;;;;26.52;13.85;;;281.70;1638.40;;;;;;5015837;28;20029;-74
2021/03/30 01:41:30;;;;;;;22.77;14.13;;;281.70;1638.40;;;;;;5015734;28;20426;-74
2021/03/30 01:43:57;;;;;;;25.20;14.68;;;281.70;1638.40;;;;;;5017185;28;20382;-74
2021/03/30 01:46:24;;;;;;;19.92;12.48;;;281.80;1638.40;;;;;;5015276;28;20052;-74
2021/03/30 01:48:50;;;;;;;21.77;13.07;;;281.80;1638.40;;;;;;5015736;28;20053;-74
2021/03/30 01:51:17;;;;;;;26.25;13.18;;;281.80;1638.40;;;;;;5016884;28;20022;-74
2021/03/30 01:53:44;;;;;;;24.90;13.30;;;281.80;1638.40;;;;;;5016841;28;20030;-74
2021/03/30 01:56:13;;;;;;;21.90;13.30;;;281.80;1638.40;;;;;;5016615;28;20022;-74
2021/03/30 01:58:39;;;;;;;24.80;14.40;;;281.80;1638.40;;;;;;5015494;28;20026;-74
2021/03/30 02:01:06;;;;;;;28.60;15.00;;;281.80;1664.00;;;;;;5016378;28;20081;-74
2021/03/30 02:03:32;;;;;;;27.55;14.13;;;281.80;1638.40;;;;;;5016414;28;20056;-75
2021/03/30 02:06:00;;;;;;;24.90;15.38;;;281.70;1664.00;;;;;;5016348;28;20439;-74
2021/03/30 02:08:31;;;;;;;26.67;13.57;;;281.70;1664.00;;;;;;5015232;28;20030;-74
2021/03/30 02:10:57;;;;;;;;;;;281.80;1664.00;;;;;;5015398;28;20034;-74
2021/03/30 02:16:08;;;;;;;29.20;14.18;;;281.80;1664.00;;;;;;5016773;28;20459;-74
2021/03/30 02:18:47;;;;;;;21.00;13.18;;;281.70;1664.00;;;;;;5016345;28;20026;-75
2021/03/30 02:21:18;;;;;;;20.15;13.18;;;281.70;1664.00;;;;;;5014808;28;20112;-74
2021/03/30 02:23:46;;;;;;;22.73;13.50;;;281.80;1664.00;;;;;;5016146;28;20106;-74
2021/03/30 02:26:13;;;;;;;23.58;12.63;;;281.70;1664.00;;;;;;5014037;28;20080;-75
2021/03/30 02:28:48;;;;;;;23.15;13.25;;;281.70;1664.00;;;;;;4997290;28;20037;-75
2021/03/30 02:31:19;;;;;;;28.23;13.55;;;281.70;1664.00;;;;;;5012774;28;20026;-75
2021/03/30 02:33:48;;;;;;;24.80;12.88;;;281.70;1664.00;;;;;;5013532;28;20018;-74
2021/03/30 02:36:15;;;;;;;34.78;13.20;;;281.70;1664.00;;;;;;5014435;28;20815;-74
2021/03/30 02:38:42;;;;;;;25.60;13.23;;;281.70;1664.00;;;;;;5014836;28;20026;-74
2021/03/30 02:41:08;;;;;;;19.63;13.13;;;281.70;1664.00;;;;;;5016024;28;20053;-74
2021/03/30 02:43:35;;;;;;;23.70;13.27;;;281.80;1664.00;;;;;;5014691;28;20065;-74
2021/03/30 02:46:03;;;;;;;19.20;13.00;;;281.80;1638.40;;;;;;5015547;28;20056;-74
2021/03/30 02:48:31;;;;;;;18.67;12.10;;;281.90;1664.00;;;;;;5015511;28;20029;-74
2021/03/30 02:50:58;;;;;;;26.15;12.50;;;281.90;1664.00;;;;;;5013714;28;20034;-74
2021/03/30 02:53:24;;;;;;;19.88;11.88;;;281.90;1664.00;;;;;;5015186;28;20026;-74
2021/03/30 02:55:50;;;;;;;24.83;11.63;;;281.90;1664.00;;;;;;4997746;28;20040;-74
2021/03/30 02:58:16;;;;;;;25.33;11.40;;;281.90;1664.00;;;;;;5015679;28;20065;-74
2021/03/30 03:00:44;;;;;;;20.98;12.23;;;281.90;1638.40;;;;;;5015964;28;20034;-75
2021/03/30 03:03:12;;;;;;;19.92;10.90;;;282.00;1638.40;;;;;;5015550;28;20025;-74
2021/03/30 03:05:38;;;;;;;26.63;10.68;;;282.00;1664.00;;;;;;5014669;28;20057;-74
2021/03/30 03:08:06;;;;;;;18.83;10.38;;;282.00;1664.00;;;;;;5014112;28;20120;-74
2021/03/30 03:10:34;;;;;;;20.92;10.93;;;282.00;1638.40;;;;;;5014082;28;20034;-74
2021/03/30 03:13:01;;;;;;;20.42;11.07;;;282.00;1664.00;;;;;;5014058;28;20038;-74
2021/03/30 03:15:28;;;;;;;18.85;10.50;;;282.00;1664.00;;;;;;5015255;28;20026;-74
2021/03/30 03:17:56;;;;;;;13.05;10.07;;;282.00;1638.40;;;;;;5013962;28;20024;-74
2021/03/30 03:20:24;;;;;;;20.02;11.20;;;282.00;1664.00;;;;;;5013872;28;20060;-74
2021/03/30 03:22:50;;;;;;;14.00;10.15;;;282.10;1638.40;;;;;;5013709;28;20124;-74
2021/03/30 03:25:16;;;;;;;22.60;11.93;;;282.10;1612.80;;;;;;5013409;28;20478;-74
2021/03/30 03:27:42;;;;;;;17.63;10.60;;;282.10;1612.80;;;;;;5013593;28;20088;-74
2021/03/30 03:30:12;;;;;;;17.45;9.50;;;282.10;1638.40;;;;;;5012568;28;20030;-75
2021/03/30 03:32:39;;;;;;;18.73;9.90;;;282.10;1638.40;;;;;;5012538;28;20058;-75
2021/03/30 03:35:09;;;;;;;15.80;10.15;;;282.10;1612.80;;;;;;5014817;28;20026;-74
2021/03/30 03:37:41;;;;;;;18.90;9.45;;;282.10;1612.80;;;;;;5013548;28;20471;-75
2021/03/30 03:40:07;;;;;;;14.63;9.88;;;282.10;1612.80;;;;;;5013190;28;20437;-75
2021/03/30 03:42:36;;;;;;;23.95;10.05;;;282.20;1612.80;;;;;;5013935;28;20120;-75
2021/03/30 03:45:04;;;;;;;15.85;9.10;;;282.20;1612.80;;;;;;5014335;28;20050;-75
2021/03/30 03:47:30;;;;;;;21.88;10.07;;;282.20;1638.40;;;;;;5012621;28;20034;-74
2021/03/30 03:49:55;;;;;;;13.20;9.65;;;282.20;1612.80;;;;;;5012972;28;20113;-75
2021/03/30 03:52:23;;;;;;;16.45;10.85;;;282.20;1612.80;;;;;;5012736;28;20116;-74
2021/03/30 03:54:49;;;;;;;13.90;8.98;;;282.20;1638.40;;;;;;5013900;28;20100;-74
2021/03/30 03:57:29;;;;;;;16.02;9.13;;;282.20;1638.40;;;;;;5013150;28;20022;-75
2021/03/30 03:59:57;;;;;;;13.57;8.70;;;282.30;1664.00;;;;;;5013110;28;20018;-75
2021/03/30 04:02:25;;;;;;;16.55;9.85;;;282.20;1664.00;;;;;;5013223;28;20367;-75
2021/03/30 04:04:59;;;;;;;15.95;9.65;;;282.20;1612.80;;;;;;5014677;28;20040;-75
2021/03/30 04:07:31;;;;;;;17.77;10.25;;;282.30;1612.80;;;;;;5013196;28;20034;-75
2021/03/30 04:10:00;;;;;;;15.40;8.90;;;282.30;1612.80;;;;;;5014418;28;20029;-75
2021/03/30 04:12:29;;;;;;;15.35;9.13;;;282.30;1638.40;;;;;;5014151;28;20026;-75
2021/03/30 04:14:57;;;;;;;16.05;9.40;;;282.20;1612.80;;;;;;5014282;28;20021;-75
2021/03/30 04:17:23;;;;;;;16.63;10.70;;;282.20;1612.80;;;;;;5013942;28;20029;-75
2021/03/30 04:19:49;;;;;;;16.98;11.10;;;282.30;1638.40;;;;;;5033934;28;20040;-76
2021/03/30 04:22:16;;;;;;;19.83;9.52;;;282.30;1638.40;;;;;;5016313;28;20378;-75
2021/03/30 04:24:43;;;;;;;22.17;10.88;;;282.30;1689.60;;;;;;5033872;28;20021;-75
2021/03/30 04:27:11;;;;;;;18.92;10.10;;;282.30;1664.00;;;;;;5016075;28;20500;-75
2021/03/30 04:29:38;;;;;;;21.92;9.45;;;282.30;1664.00;;;;;;5033705;28;20036;-74
2021/03/30 04:32:04;;;;;;;23.63;9.27;;;282.30;1638.40;;;;;;5015898;28;20091;-74
2021/03/30 04:34:30;;;;;;;23.38;9.63;;;282.30;1664.00;;;;;;5016085;28;20494;-74
2021/03/30 04:36:56;;;;;;;23.35;9.80;;;282.30;1664.00;;;;;;5033721;28;20029;-74
2021/03/30 04:39:21;;;;;;;21.05;10.55;;;282.30;1664.00;;;;;;5033578;28;20021;-74
2021/03/30 04:41:47;;;;;;;15.18;10.07;;;282.30;1664.00;;;;;;5015746;28;20026;-77
2021/03/30 04:44:13;;;;;;;16.40;11.13;;;282.30;1664.00;;;;;;5015744;28;20124;-74
2021/03/30 04:46:39;;;;;;;29.10;15.75;;;282.30;1664.00;;;;;;5033222;28;20049;-75
2021/03/30 04:49:04;;;;;;;27.25;15.63;;;282.30;1689.60;;;;;;4999543;28;20367;-74
2021/03/30 04:51:30;;;;;;;23.60;15.25;;;282.30;1664.00;;;;;;5033690;28;20363;-74
2021/03/30 04:53:56;;;;;;;36.10;15.70;;;282.40;1689.60;;;;;;5033189;28;20029;-74
2021/03/30 04:56:22;;;;;;;32.70;16.10;;;282.30;1664.00;;;;;;5033515;28;20018;-74
2021/03/30 04:58:47;;;;;;;32.80;17.45;;;282.40;1664.00;;;;;;5033351;28;20532;-76
2021/03/30 05:01:13;;;;;;;28.00;15.32;;;282.40;1715.20;;;;;;5016185;28;20021;-75
2021/03/30 05:03:39;;;;;;;46.00;23.05;;;282.40;1689.60;;;;;;5015565;28;20056;-74
2021/03/30 05:06:05;;;;;;;64.97;30.75;;;282.40;1715.20;;;;;;5033225;28;20036;-74
2021/03/30 05:08:31;;;;;;;129.27;65.25;;;282.40;1689.60;;;;;;5015556;28;20033;-74
2021/03/30 05:10:57;;;;;;;137.48;64.68;;;282.40;1664.00;;;;;;5013760;28;20041;-74
2021/03/30 05:13:23;;;;;;;84.93;37.22;;;282.40;1664.00;;;;;;5015226;28;20034;-75
2021/03/30 05:15:48;;;;;;;76.95;28.23;;;282.40;1715.20;;;;;;5015369;28;20040;-74
2021/03/30 05:18:14;;;;;;;49.53;23.77;;;282.40;1715.20;;;;;;5015174;28;20448;-74
2021/03/30 05:20:40;;;;;;;39.05;19.25;;;282.50;1689.60;;;;;;5014699;28;20371;-74
2021/03/30 05:23:06;;;;;;;39.08;20.65;;;282.40;1689.60;;;;;;5032392;28;20029;-74
2021/03/30 05:25:32;;;;;;;59.95;29.33;;;282.50;1715.20;;;;;;5013534;28;20037;-74
2021/03/30 05:27:57;;;;;;;82.25;45.55;;;282.50;1715.20;;;;;;5014132;28;20052;-75
2021/03/30 05:30:24;;;;;;;80.80;46.17;;;282.50;1689.60;;;;;;5014303;28;20041;-74
2021/03/30 05:32:50;;;;;;;81.43;41.95;;;307.20;1766.40;;;;;;5038478;28;20477;-74
2021/03/30 05:35:15;;;;;;;60.28;33.03;;;307.20;1766.40;;;;;;5033480;28;20029;-75
2021/03/30 05:37:41;;;;;;;63.90;31.98;;;307.20;1740.80;;;;;;5051661;28;20538;-74
2021/03/30 05:40:10;;;;;;;68.65;36.85;;;307.20;1740.80;;;;;;5052845;28;20441;-75
2021/03/30 05:42:35;;;;;;;82.03;43.08;;;307.30;1740.80;;;;;;5034878;28;20068;-75
2021/03/30 05:45:02;;;;;;;76.05;39.72;;;307.30;1715.20;;;;;;5052420;28;20076;-75
2021/03/30 05:47:29;;;;;;;83.45;42.75;;;307.30;1715.20;;;;;;5034904;28;20043;-74
2021/03/30 05:49:55;;;;;;;130.23;70.88;;;307.30;1740.80;;;;;;5034939;28;20025;-75
2021/03/30 05:52:28;;;;;;;148.38;85.38;;;307.30;1740.80;;;;;;5034727;28;20025;-74
2021/03/30 05:54:56;;;;;;;154.18;93.03;;;307.30;1740.80;;;;;;5034858;28;20075;-75
2021/03/30 05:57:28;;;;;;;88.63;54.33;;;307.40;1766.40;;;;;;5034939;28;20028;-75
2021/03/30 05:59:59;;;;;;;134.10;65.07;;;307.40;1740.80;;;;;;5052709;28;20032;-75
2021/03/30 06:02:34;;;;;;;149.05;62.75;;;307.40;1715.20;;;;;;5052886;28;20028;-75
2021/03/30 06:05:00;;;;;;;243.45;105.72;;;307.40;1715.20;;;;;;5035139;28;20032;-75
2021/03/30 06:07:29;;;;;;;154.07;70.22;;;307.50;1715.20;;;;;;5038446;28;20036;-75
2021/03/30 06:09:56;;;;;;;67.05;36.65;;;307.50;1740.80;;;;;;5038071;28;20048;-74
2021/03/30 06:12:21;;;;;;;70.72;35.30;;;307.50;1689.60;;;;;;5056156;28;20075;-75
2021/03/30 06:14:48;;;;;;;75.47;39.17;;;307.50;1689.60;;;;;;5056137;28;20024;-75
2021/03/30 06:17:16;;;;;;;65.13;32.33;;;307.50;1740.80;;;;;;5038017;28;20021;-74
2021/03/30 06:19:53;;;;;;;53.00;28.20;;;307.50;1740.80;;;;;;5037883;28;20385;-75
2021/03/30 06:22:21;;;;;;;39.53;23.17;;;307.60;1740.80;;;;;;5037098;28;20457;-75
2021/03/30 06:24:47;;;;;;;40.58;22.67;;;307.60;1766.40;;;;;;5036708;28;20029;-75
2021/03/30 06:27:28;;;;;;;43.00;19.27;;;307.60;1792.00;;;;;;5036941;28;20021;-75
2021/03/30 06:29:58;;;;;;;33.25;17.85;;;307.60;1766.40;;;;;;5055781;28;20108;-75
2021/03/30 06:32:25;;;;;;;30.10;15.35;;;307.70;1792.00;;;;;;5037935;28;20108;-75
2021/03/30 06:34:56;;;;;;;24.63;15.60;;;307.70;1766.40;;;;;;5037962;28;20032;-75
2021/03/30 06:37:32;;;;;;;39.15;17.23;;;307.70;1740.80;;;;;;5037921;28;20480;-75
2021/03/30 06:39:59;;;;;;;26.30;15.95;;;307.70;1715.20;;;;;;5037814;28;20037;-75
2021/03/30 06:42:34;;;;;;;30.65;16.27;;;307.80;1715.20;;;;;;5055707;28;20025;-75
2021/03/30 06:45:00;;;;;;;29.80;16.02;;;307.80;1689.60;;;;;;5037164;28;20044;-75
2021/03/30 06:47:26;;;;;;;31.38;16.42;;;307.80;1715.20;;;;;;5037642;28;20037;-74
2021/03/30 06:50:03;;;;;;;31.80;16.70;;;307.80;1715.20;;;;;;5055515;28;20025;-75
2021/03/30 06:52:33;;;;;;;39.60;18.33;;;307.90;1715.20;;;;;;5055287;28;20025;-75
2021/03/30 06:55:11;;;;;;;25.90;16.45;;;307.90;1715.20;;;;;;5055467;28;20040;-74
2021/03/30 06:57:48;;;;;;;39.00;19.25;;;308.00;1740.80;;;;;;5037434;28;20033;-75
2021/03/30 07:00:26;;;;;;;37.63;19.02;;;308.00;1740.80;;;;;;5037487;28;20017;-75
2021/03/30 07:02:57;;;;;;;31.50;16.60;;;308.00;1715.20;;;;;;5037334;28;20041;-75
2021/03/30 07:05:27;;;;;;;30.08;16.80;;;308.10;1715.20;;;;;;5036866;28;20488;-75
2021/03/30 07:07:56;;;;;;;33.85;16.17;;;308.10;1715.20;;;;;;5036835;28;20041;-75
2021/03/30 07:10:23;;;;;;;34.38;18.88;;;308.10;1740.80;;;;;;5055262;28;20083;-75
2021/03/30 07:12:50;;;;;;;41.08;18.30;;;332.80;1740.80;;;;;;5055282;28;20366;-75
2021/03/30 07:15:21;;;;;;;35.25;19.77;;;332.80;1766.40;;;;;;5037107;28;20029;-75
2021/03/30 07:17:54;;;;;;;;;;;332.80;1740.80;;;;;;5055315;28;20040;-75
2021/03/30 07:20:20;;;;;;;38.08;19.45;;;332.90;1740.80;;;;;;5037174;28;19978;-75
2021/03/30 07:22:48;;;;;;;31.20;18.15;;;333.00;1740.80;;;;;;5036977;28;20025;-75
2021/03/30 07:25:19;;;;;;;28.65;17.27;;;333.00;1689.60;;;;;;5036707;28;20040;-76
2021/03/30 07:27:59;;;;;;;33.65;19.35;;;333.00;1689.60;;;;;;5036943;28;20469;-74
2021/03/30 07:30:26;;;;;;;46.20;24.40;;;333.10;1715.20;;;;;;5036934;28;20072;-74
2021/03/30 07:33:22;;;;;;;38.58;20.65;;;333.10;1689.60;;;;;;5054909;28;20057;-74
2021/03/30 07:35:48;;;;;;;30.30;16.75;;;333.20;1689.60;;;;;;5029462;28;20029;-74
2021/03/30 07:38:20;;;;;;;26.58;16.63;;;333.30;1664.00;;;;;;5036732;28;20023;-74
2021/03/30 07:40:47;;;;;;;33.55;17.50;;;333.30;1664.00;;;;;;5036724;28;20412;-74
2021/03/30 07:43:21;;;;;;;26.58;16.60;;;333.40;1664.00;;;;;;5054603;28;20067;-74
2021/03/30 07:45:48;;;;;;;26.55;16.60;;;333.40;1664.00;;;;;;5054363;28;20073;-74
2021/03/30 07:48:18;;;;;;;34.97;16.77;;;333.50;1689.60;;;;;;5036593;28;20036;-74
2021/03/30 07:50:49;;;;;;;28.37;16.67;;;333.50;1664.00;;;;;;5036014;28;20389;-74
2021/03/30 07:53:52;;;;;;;34.45;17.23;;;333.50;1664.00;;;;;;5053483;28;20100;-74
2021/03/30 07:56:24;;;;;;;21.70;14.77;;;333.50;1689.60;;;;;;5035689;28;20538;-74
2021/03/30 07:58:52;;;;;;;26.35;15.32;;;333.60;1638.40;;;;;;5035355;28;20111;-74
2021/03/30 08:01:20;;;;;;;21.75;13.27;;;333.60;1638.40;;;;;;5053832;28;20025;-74
2021/03/30 08:03:49;;;;;;;49.42;32.63;;;333.70;1638.40;;;;;;5036016;28;20032;-74
2021/03/30 08:06:16;;;;;;;37.13;22.73;;;333.70;1664.00;;;;;;5054373;28;20048;-74
2021/03/30 08:08:47;;;;;;;28.40;17.60;;;358.40;1638.40;;;;;;5036197;28;20127;-74
2021/03/30 08:11:14;;;;;;;31.80;19.13;;;358.50;1664.00;;;;;;5036098;28;20182;-74
2021/03/30 08:13:58;;;;;;;24.55;16.45;;;358.50;1664.00;;;;;;5035937;28;20025;-74
2021/03/30 08:16:25;;;;;;;29.42;16.10;;;358.50;1638.40;;;;;;5036231;28;20054;-74
2021/03/30 08:18:52;;;;;;;27.58;16.23;;;358.60;1664.00;;;;;;5053441;28;20051;-74
2021/03/30 08:21:20;;;;;;;27.02;17.00;;;358.70;1638.40;;;;;;5053467;28;20032;-74
2021/03/30 08:23:51;;;;;;;27.23;16.17;;;358.70;1612.80;;;;;;5035647;28;20033;-74
2021/03/30 08:26:28;;;;;;;32.97;19.83;;;358.70;1638.40;;;;;;5034803;28;20025;-74
2021/03/30 08:29:08;;;;;;;41.53;21.73;;;358.80;1638.40;;;;;;5051864;28;20507;-74
2021/03/30 08:31:47;;;;;;;41.03;24.50;;;358.80;1638.40;;;;;;5052261;28;20029;-74
2021/03/30 08:34:16;;;;;;;38.60;24.35;;;358.90;1664.00;;;;;;5018783;28;20424;-74
2021/03/30 08:36:48;;;;;;;62.50;30.30;;;358.90;1664.00;;;;;;5052770;28;20080;-74
2021/03/30 08:39:22;;;;;;;51.88;27.33;;;359.00;1664.00;;;;;;5053378;28;20048;-74
2021/03/30 08:41:56;;;;;;;48.97;28.17;;;359.00;1612.80;;;;;;5035345;28;20065;-74
2021/03/30 08:44:42;;;;;;;49.67;26.33;;;359.10;1587.20;;;;;;5035409;28;20037;-74
2021/03/30 08:47:10;;;;;;;48.60;28.80;;;359.10;1587.20;;;;;;5035472;28;20095;-74
2021/03/30 08:49:39;;;;;;;45.95;27.00;;;359.10;1587.20;;;;;;5053337;28;20584;-74
2021/03/30 08:52:10;;;;;;;44.35;28.20;;;359.20;1587.20;;;;;;5034849;28;20115;-74
2021/03/30 08:54:54;;;;;;;56.47;29.83;;;359.20;1587.20;;;;;;5053193;28;20109;-74
2021/03/30 08:57:22;;;;;;;44.30;28.70;;;359.30;1612.80;;;;;;5035222;28;20484;-74
2021/03/30 08:59:48;;;;;;;44.25;26.55;;;384.00;1587.20;;;;;;5034981;28;20092;-75
2021/03/30 09:02:21;;;;;;;55.63;30.02;;;384.10;1561.60;;;;;;5034858;28;20469;-75
2021/03/30 09:04:47;;;;;;;53.15;30.70;;;384.10;1638.40;;;;;;5034715;28;20033;-74
2021/03/30 09:07:13;;;;;;;46.72;28.15;;;384.20;1612.80;;;;;;5034389;28;20040;-74
2021/03/30 09:09:39;;;;;;;55.15;26.23;;;384.30;1587.20;;;;;;5052407;28;20025;-74
2021/03/30 09:12:18;;;;;;;36.13;22.77;;;384.40;1587.20;;;;;;5052184;28;20340;-74
2021/03/30 09:14:45;;;;;;;31.85;20.88;;;384.50;1536.00;;;;;;5034132;28;20028;-74
2021/03/30 09:17:13;;;;;;;40.85;23.48;;;384.50;1561.60;;;;;;5051521;28;20467;-74
2021/03/30 09:19:45;;;;;;;37.20;19.42;;;384.60;1561.60;;;;;;5016741;28;20128;-74
2021/03/30 09:22:24;;;;;;;33.92;17.40;;;384.70;1587.20;;;;;;5052457;28;20470;-74
2021/03/30 09:27:33;;;;;;;22.33;13.98;;;384.80;1510.40;;;;;;5053263;28;20496;-75
2021/03/30 09:30:01;;;;;;;24.20;14.48;;;384.80;1459.20;;;;;;5035026;28;20471;-75
2021/03/30 09:32:29;;;;;;;34.63;12.60;;;384.80;1459.20;;;;;;5052810;28;20021;-74
2021/03/30 09:35:09;;;;;;;26.60;12.93;;;384.80;1433.60;;;;;;5052843;28;20075;-75
2021/03/30 09:37:43;;;;;;;20.45;11.35;;;384.90;1484.80;;;;;;5035048;28;20488;-75
2021/03/30 09:40:11;;;;;;;16.55;12.35;;;384.90;1433.60;;;;;;5035841;28;20029;-75
2021/03/30 09:42:40;;;;;;;24.70;12.60;;;409.60;1408.00;;;;;;5056732;28;20056;-74
2021/03/30 09:45:14;;;;;;;20.58;11.80;;;409.60;1433.60;;;;;;5056715;28;20175;-74
2021/03/30 09:47:42;;;;;;;21.75;12.10;;;409.70;1433.60;;;;;;5038889;28;20124;-75
2021/03/30 09:50:09;;;;;;;23.52;11.55;;;409.70;1408.00;;;;;;5038787;28;20409;-75
2021/03/30 09:52:37;;;;;;;20.33;11.43;;;409.80;1459.20;;;;;;5038598;28;20056;-74
2021/03/30 09:55:04;;;;;;;28.23;12.55;;;409.90;1433.60;;;;;;5056329;28;20468;-75
2021/03/30 09:57:31;;;;;;;20.52;11.45;;;409.90;1433.60;;;;;;5056121;28;20564;-74
2021/03/30 09:59:58;;;;;;;22.63;10.35;;;410.10;1510.40;;;;;;5055939;28;20028;-75
2021/03/30 10:02:30;;;;;;;23.60;10.20;;;410.10;1433.60;;;;;;5055260;28;20025;-75
2021/03/30 10:05:02;;;;;;;21.90;10.35;;;410.10;1433.60;;;;;;5056167;28;20025;-75
2021/03/30 10:07:36;;;;;;;19.63;9.05;;;410.20;1408.00;;;;;;5038415;28;20167;-75
2021/03/30 10:10:11;;;;;;;76.82;57.15;;;410.20;1382.40;;;;;;5056513;28;20377;-75
2021/03/30 10:12:49;;;;;;;32.13;14.75;;;410.30;1433.60;;;;;;5038348;28;20095;-75
2021/03/30 10:15:15;;;;;;;17.10;7.68;;;410.40;1382.40;;;;;;5038252;28;20028;-75
2021/03/30 10:17:41;;;;;;;13.18;7.20;;;410.40;1382.40;;;;;;5056203;28;20029;-75
2021/03/30 10:20:12;;;;;;;16.73;6.70;;;410.40;1382.40;;;;;;5037730;28;20041;-74
2021/03/30 10:22:46;;;;;;;24.67;9.00;;;410.40;1433.60;;;;;;5037655;28;20025;-74
2021/03/30 10:25:20;;;;;;;20.40;7.45;;;410.50;1433.60;;;;;;5055374;28;20059;-75
2021/03/30 10:27:55;;;;;;;21.83;6.78;;;435.20;1408.00;;;;;;5037091;28;20120;-74
2021/03/30 10:30:30;;;;;;;16.23;6.72;;;435.20;1433.60;;;;;;5037612;28;20036;-75
2021/03/30 10:32:58;;;;;;;11.70;7.07;;;435.30;1459.20;;;;;;5055717;28;20017;-75
2021/03/30 10:35:25;;;;;;;15.30;6.93;;;435.40;1433.60;;;;;;5055731;28;20024;-75
2021/03/30 10:37:51;;;;;;;17.75;7.15;;;435.50;1459.20;;;;;;5037844;28;20191;-75
2021/03/30 10:40:17;;;;;;;19.17;8.13;;;435.50;1408.00;;;;;;5037844;28;20021;-75
2021/03/30 10:42:43;;;;;;;12.75;6.70;;;435.50;1356.80;;;;;;5024908;28;20034;-75
2021/03/30 10:45:11;;;;;;;13.32;7.50;;;435.50;1382.40;;;;;;5019538;28;20569;-75
2021/03/30 10:47:39;;;;;;;17.70;6.07;;;435.50;1408.00;;;;;;5037146;28;20037;-76
2021/03/30 10:50:17;;;;;;;87.55;12.77;;;435.50;1433.60;;;;;;5018688;28;20088;-77
2021/03/30 10:52:43;;;;;;;66.68;10.07;;;435.60;1484.80;;;;;;5017054;28;20021;-75
2021/03/30 10:55:13;;;;;;;17.65;5.95;;;435.60;1459.20;;;;;;5017668;28;20017;-80
2021/03/30 10:57:45;;;;;;;17.73;6.60;;;435.60;1433.60;;;;;;5035354;28;20028;-78
2021/03/30 11:00:12;;;;;;;13.88;6.80;;;435.70;1459.20;;;;;;5017498;28;20596;-79
2021/03/30 11:02:38;;;;;;;15.32;7.65;;;435.70;1433.60;;;;;;5016859;28;20025;-75
2021/03/30 11:05:05;;;;;;;13.13;6.55;;;435.80;1433.60;;;;;;5016930;28;20033;-76
2021/03/30 11:07:31;;;;;;;11.43;6.57;;;435.80;1408.00;;;;;;5017431;28;20424;-76
2021/03/30 11:09:57;;;;;;;10.60;5.60;;;435.80;1459.20;;;;;;5017183;28;20041;-76
2021/03/30 11:12:24;;;;;;;9.50;5.82;;;435.80;1459.20;;;;;;5016965;28;20026;-75
2021/03/30 11:14:50;;;;;;;16.08;6.28;;;435.90;1433.60;;;;;;5017092;28;20029;-75
2021/03/30 11:17:15;;;;;;;9.25;4.25;;;435.90;1459.20;;;;;;5017271;28;20056;-76
2021/03/30 11:19:41;;;;;;;11.70;4.25;;;435.90;1433.60;;;;;;5035010;28;20100;-75
2021/03/30 11:22:08;;;;;;;12.40;4.13;;;435.90;1433.60;;;;;;5016510;28;20044;-81
2021/03/30 11:24:35;;;;;;;11.27;6.43;;;435.90;1408.00;;;;;;5017202;28;20021;-78
2021/03/30 11:27:01;;;;;;;15.43;5.70;;;435.90;1433.60;;;;;;5017113;28;20033;-77
2021/03/30 11:39:48;;;;;;;12.10;4.63;;;435.90;1433.60;;;;;;5034775;28;20021;-75
2021/03/30 11:42:14;;;;;;;8.25;4.28;;;435.90;1459.20;;;;;;5016909;28;20034;-75
2021/03/30 11:44:40;;;;;;;7.78;3.90;;;435.90;1459.20;;;;;;5016640;28;20429;-76
2021/03/30 11:47:06;;;;;;;12.07;5.13;;;435.90;1433.60;;;;;;5034558;28;20037;-75
2021/03/30 11:49:33;;;;;;;9.23;4.10;;;435.90;1433.60;;;;;;5016928;28;20503;-75
2021/03/30 11:51:59;;;;;;;11.90;4.50;;;435.90;1408.00;;;;;;5016702;28;20029;-75
2021/03/30 11:54:25;;;;;;;14.52;6.22;;;435.90;1433.60;;;;;;5034495;28;20026;-75
2021/03/30 11:56:52;;;;;;;11.73;5.70;;;435.90;1433.60;;;;;;5016175;28;20503;-75
2021/03/30 11:59:17;;;;;;;11.73;4.88;;;436.00;1433.60;;;;;;5016462;28;20120;-75
2021/03/30 12:01:44;;;;;;;13.23;4.95;;;436.00;1433.60;;;;;;5016659;28;20109;-75
2021/03/30 12:04:10;;;;;;;9.75;4.80;;;436.00;1433.60;;;;;;5033215;28;20528;-75
2021/03/30 12:06:35;;;;;;;13.27;5.57;;;436.00;1433.60;;;;;;5033835;28;20029;-75
2021/03/30 12:09:02;;;;;;;14.88;4.82;;;436.00;1408.00;;;;;;5015398;28;20026;-75
2021/03/30 12:11:29;;;;;;;17.13;8.43;;;436.00;1382.40;;;;;;5014808;28;20592;-75
2021/03/30 12:13:55;;;;;;;9.02;5.35;;;435.90;1382.40;;;;;;5015503;28;20029;-76
2021/03/30 12:16:21;;;;;;;12.15;5.40;;;436.10;1408.00;;;;;;5034060;28;20045;-76
2021/03/30 12:18:46;;;;;;;12.13;4.95;;;460.80;1433.60;;;;;;5033939;28;20064;-75
2021/03/30 12:21:12;;;;;;;7.93;4.35;;;460.90;1459.20;;;;;;5033550;28;20033;-75
2021/03/30 12:23:38;;;;;;;12.30;4.65;;;460.90;1433.60;;;;;;5033856;28;20025;-75
2021/03/30 12:26:04;;;;;;;11.20;6.07;;;461.00;1433.60;;;;;;5016019;28;20037;-75